sensor_id;sensor_type;location;lat;lon;timestamp;P1;durP1;ratioP1;P2;durP2;ratioP2
3523;SDS011;1776;53.330;11.498;2022-11-11T00:01:11;6.00;;;3.07;;
3523;SDS011;1776;53.330;11.498;2022-11-11T00:03:38;12.00;;;3.60;;
3523;SDS011;1776;53.330;11.498;2022-11-11T00:06:11;7.03;;;2.93;;
3523;SDS011;1776;53.330;11.498;2022-11-11T00:08:38;9.17;;;4.00;;
3523;SDS011;1776;53.330;11.498;2022-11-11T00:11:08;6.57;;;2.43;;
3523;SDS011;1776;53.330;11.498;2022-11-11T00:13:36;14.90;;;5.53;;
3523;SDS011;1776;53.330;11.498;2022-11-11T00:16:09;9.10;;;3.07;;
3523;SDS011;1776;53.330;11.498;2022-11-11T00:18:36;11.67;;;3.33;;
3523;SDS011;1776;53.330;11.498;2022-11-11T00:21:20;12.90;;;3.30;;
3523;SDS011;1776;53.330;11.498;2022-11-11T00:24:01;5.60;;;2.67;;
3523;SDS011;1776;53.330;11.498;2022-11-11T00:26:45;10.90;;;4.33;;
3523;SDS011;1776;53.330;11.498;2022-11-11T00:29:10;9.93;;;3.10;;
3523;SDS011;1776;53.330;11.498;2022-11-11T00:31:35;4.17;;;2.67;;
3523;SDS011;1776;53.330;11.498;2022-11-11T00:34:21;8.83;;;4.13;;
3523;SDS011;1776;53.330;11.498;2022-11-11T00:36:46;9.87;;;3.83;;
3523;SDS011;1776;53.330;11.498;2022-11-11T00:39:11;7.40;;;3.30;;
3523;SDS011;1776;53.330;11.498;2022-11-11T00:41:36;12.63;;;3.20;;
3523;SDS011;1776;53.330;11.498;2022-11-11T00:44:02;6.60;;;2.70;;
3523;SDS011;1776;53.330;11.498;2022-11-11T00:46:27;8.33;;;3.37;;
3523;SDS011;1776;53.330;11.498;2022-11-11T00:49:11;7.83;;;3.43;;
3523;SDS011;1776;53.330;11.498;2022-11-11T00:51:55;10.40;;;3.63;;
3523;SDS011;1776;53.330;11.498;2022-11-11T00:54:20;6.67;;;3.27;;
3523;SDS011;1776;53.330;11.498;2022-11-11T00:56:45;9.53;;;3.43;;
3523;SDS011;1776;53.330;11.498;2022-11-11T00:59:10;10.30;;;3.13;;
3523;SDS011;1776;53.330;11.498;2022-11-11T01:01:36;6.07;;;2.70;;
3523;SDS011;1776;53.330;11.498;2022-11-11T01:04:02;6.90;;;2.60;;
3523;SDS011;1776;53.330;11.498;2022-11-11T01:06:28;7.43;;;2.90;;
3523;SDS011;1776;53.330;11.498;2022-11-11T01:08:54;6.73;;;2.60;;
3523;SDS011;1776;53.330;11.498;2022-11-11T01:11:20;18.00;;;4.10;;
3523;SDS011;1776;53.330;11.498;2022-11-11T01:13:47;10.90;;;3.40;;
3523;SDS011;1776;53.330;11.498;2022-11-11T01:16:14;6.03;;;2.67;;
3523;SDS011;1776;53.330;11.498;2022-11-11T01:18:41;6.60;;;2.80;;
3523;SDS011;1776;53.330;11.498;2022-11-11T01:23:37;11.00;;;2.90;;
3523;SDS011;1776;53.330;11.498;2022-11-11T01:26:04;7.77;;;4.07;;
3523;SDS011;1776;53.330;11.498;2022-11-11T01:28:32;7.40;;;2.70;;
3523;SDS011;1776;53.330;11.498;2022-11-11T01:31:01;5.27;;;3.30;;
3523;SDS011;1776;53.330;11.498;2022-11-11T01:33:28;16.43;;;4.73;;
3523;SDS011;1776;53.330;11.498;2022-11-11T01:35:54;15.90;;;3.57;;
3523;SDS011;1776;53.330;11.498;2022-11-11T01:38:19;12.40;;;3.20;;
3523;SDS011;1776;53.330;11.498;2022-11-11T01:40:46;6.13;;;2.80;;
3523;SDS011;1776;53.330;11.498;2022-11-11T01:43:19;13.33;;;3.20;;
3523;SDS011;1776;53.330;11.498;2022-11-11T01:45:48;4.43;;;3.10;;
3523;SDS011;1776;53.330;11.498;2022-11-11T01:48:26;13.73;;;2.67;;
3523;SDS011;1776;53.330;11.498;2022-11-11T01:51:13;7.73;;;3.10;;
3523;SDS011;1776;53.330;11.498;2022-11-11T01:53:43;4.17;;;2.40;;
3523;SDS011;1776;53.330;11.498;2022-11-11T01:56:09;6.30;;;2.67;;
3523;SDS011;1776;53.330;11.498;2022-11-11T01:58:36;2.67;;;2.20;;
3523;SDS011;1776;53.330;11.498;2022-11-11T02:01:02;8.50;;;2.73;;
3523;SDS011;1776;53.330;11.498;2022-11-11T02:03:28;7.90;;;2.80;;
3523;SDS011;1776;53.330;11.498;2022-11-11T02:05:57;11.17;;;2.70;;
3523;SDS011;1776;53.330;11.498;2022-11-11T02:08:24;12.73;;;4.43;;
3523;SDS011;1776;53.330;11.498;2022-11-11T02:11:17;7.80;;;3.90;;
3523;SDS011;1776;53.330;11.498;2022-11-11T02:14:05;15.73;;;4.40;;
3523;SDS011;1776;53.330;11.498;2022-11-11T02:16:49;6.90;;;2.70;;
3523;SDS011;1776;53.330;11.498;2022-11-11T02:19:15;8.00;;;2.30;;
3523;SDS011;1776;53.330;11.498;2022-11-11T02:21:50;8.90;;;2.73;;
3523;SDS011;1776;53.330;11.498;2022-11-11T02:24:19;8.33;;;2.60;;
3523;SDS011;1776;53.330;11.498;2022-11-11T02:26:47;9.77;;;4.17;;
3523;SDS011;1776;53.330;11.498;2022-11-11T02:29:16;8.30;;;3.00;;
3523;SDS011;1776;53.330;11.498;2022-11-11T02:31:43;6.93;;;2.80;;
3523;SDS011;1776;53.330;11.498;2022-11-11T02:34:09;9.83;;;4.40;;
3523;SDS011;1776;53.330;11.498;2022-11-11T02:36:34;8.93;;;3.90;;
3523;SDS011;1776;53.330;11.498;2022-11-11T02:39:01;3.60;;;2.67;;
3523;SDS011;1776;53.330;11.498;2022-11-11T02:41:26;6.53;;;3.30;;
3523;SDS011;1776;53.330;11.498;2022-11-11T02:44:10;10.57;;;3.63;;
3523;SDS011;1776;53.330;11.498;2022-11-11T02:46:35;14.87;;;4.30;;
3523;SDS011;1776;53.330;11.498;2022-11-11T02:49:00;5.37;;;3.97;;
3523;SDS011;1776;53.330;11.498;2022-11-11T02:51:26;10.03;;;4.13;;
3523;SDS011;1776;53.330;11.498;2022-11-11T02:53:51;9.33;;;4.90;;
3523;SDS011;1776;53.330;11.498;2022-11-11T02:56:16;8.07;;;5.10;;
3523;SDS011;1776;53.330;11.498;2022-11-11T02:59:01;12.60;;;4.70;;
3523;SDS011;1776;53.330;11.498;2022-11-11T03:01:27;30.40;;;6.13;;
3523;SDS011;1776;53.330;11.498;2022-11-11T03:03:52;7.30;;;3.97;;
3523;SDS011;1776;53.330;11.498;2022-11-11T03:06:17;5.83;;;4.10;;
3523;SDS011;1776;53.330;11.498;2022-11-11T03:08:42;8.90;;;4.43;;
3523;SDS011;1776;53.330;11.498;2022-11-11T03:11:08;7.93;;;5.70;;
3523;SDS011;1776;53.330;11.498;2022-11-11T03:13:33;9.70;;;3.70;;
3523;SDS011;1776;53.330;11.498;2022-11-11T03:15:58;9.40;;;3.40;;
3523;SDS011;1776;53.330;11.498;2022-11-11T03:18:23;8.00;;;3.37;;
3523;SDS011;1776;53.330;11.498;2022-11-11T03:20:49;4.73;;;3.40;;
3523;SDS011;1776;53.330;11.498;2022-11-11T03:23:34;4.37;;;2.77;;
3523;SDS011;1776;53.330;11.498;2022-11-11T03:25:59;5.57;;;2.90;;
3523;SDS011;1776;53.330;11.498;2022-11-11T03:28:25;6.70;;;2.63;;
3523;SDS011;1776;53.330;11.498;2022-11-11T03:30:50;6.60;;;3.40;;
3523;SDS011;1776;53.330;11.498;2022-11-11T03:33:16;7.30;;;3.10;;
3523;SDS011;1776;53.330;11.498;2022-11-11T03:35:46;4.30;;;2.70;;
3523;SDS011;1776;53.330;11.498;2022-11-11T03:38:12;15.53;;;3.67;;
3523;SDS011;1776;53.330;11.498;2022-11-11T03:40:51;14.33;;;3.47;;
3523;SDS011;1776;53.330;11.498;2022-11-11T03:43:18;12.40;;;3.97;;
3523;SDS011;1776;53.330;11.498;2022-11-11T03:45:45;7.07;;;3.30;;
3523;SDS011;1776;53.330;11.498;2022-11-11T03:48:11;10.00;;;4.10;;
3523;SDS011;1776;53.330;11.498;2022-11-11T03:50:36;8.73;;;3.23;;
3523;SDS011;1776;53.330;11.498;2022-11-11T03:53:02;4.77;;;2.63;;
3523;SDS011;1776;53.330;11.498;2022-11-11T03:55:28;10.33;;;3.40;;
3523;SDS011;1776;53.330;11.498;2022-11-11T03:57:54;6.93;;;3.30;;
3523;SDS011;1776;53.330;11.498;2022-11-11T04:00:20;11.40;;;2.83;;
3523;SDS011;1776;53.330;11.498;2022-11-11T04:02:47;5.43;;;3.30;;
3523;SDS011;1776;53.330;11.498;2022-11-11T04:05:31;11.93;;;4.50;;
3523;SDS011;1776;53.330;11.498;2022-11-11T04:08:16;9.80;;;3.30;;
3523;SDS011;1776;53.330;11.498;2022-11-11T04:11:35;6.10;;;3.53;;
3523;SDS011;1776;53.330;11.498;2022-11-11T04:14:00;14.93;;;3.70;;
3523;SDS011;1776;53.330;11.498;2022-11-11T04:16:46;10.23;;;4.00;;
3523;SDS011;1776;53.330;11.498;2022-11-11T04:19:11;13.00;;;3.50;;
3523;SDS011;1776;53.330;11.498;2022-11-11T04:21:55;13.40;;;3.70;;
3523;SDS011;1776;53.330;11.498;2022-11-11T04:24:20;7.50;;;3.10;;
3523;SDS011;1776;53.330;11.498;2022-11-11T04:27:08;7.67;;;3.30;;
3523;SDS011;1776;53.330;11.498;2022-11-11T04:29:37;7.47;;;2.77;;
3523;SDS011;1776;53.330;11.498;2022-11-11T04:32:04;5.93;;;3.00;;
3523;SDS011;1776;53.330;11.498;2022-11-11T04:34:52;8.57;;;3.60;;
3523;SDS011;1776;53.330;11.498;2022-11-11T04:37:18;5.87;;;2.97;;
3523;SDS011;1776;53.330;11.498;2022-11-11T04:39:45;6.60;;;3.60;;
3523;SDS011;1776;53.330;11.498;2022-11-11T04:42:29;6.90;;;3.70;;
3523;SDS011;1776;53.330;11.498;2022-11-11T04:44:56;6.90;;;3.93;;
3523;SDS011;1776;53.330;11.498;2022-11-11T04:47:56;9.27;;;3.77;;
3523;SDS011;1776;53.330;11.498;2022-11-11T04:50:24;8.00;;;4.17;;
3523;SDS011;1776;53.330;11.498;2022-11-11T04:52:51;5.17;;;2.90;;
3523;SDS011;1776;53.330;11.498;2022-11-11T04:55:17;4.83;;;2.77;;
3523;SDS011;1776;53.330;11.498;2022-11-11T04:58:01;7.40;;;3.60;;
3523;SDS011;1776;53.330;11.498;2022-11-11T05:00:26;7.27;;;3.60;;
3523;SDS011;1776;53.330;11.498;2022-11-11T05:02:52;7.03;;;3.73;;
3523;SDS011;1776;53.330;11.498;2022-11-11T05:05:37;11.33;;;3.67;;
3523;SDS011;1776;53.330;11.498;2022-11-11T05:08:21;7.10;;;3.63;;
3523;SDS011;1776;53.330;11.498;2022-11-11T05:11:05;7.40;;;3.53;;
3523;SDS011;1776;53.330;11.498;2022-11-11T05:13:30;5.87;;;3.60;;
3523;SDS011;1776;53.330;11.498;2022-11-11T05:16:15;10.93;;;4.50;;
3523;SDS011;1776;53.330;11.498;2022-11-11T05:19:02;6.10;;;3.83;;
3523;SDS011;1776;53.330;11.498;2022-11-11T05:21:46;10.33;;;4.07;;
3523;SDS011;1776;53.330;11.498;2022-11-11T05:24:11;13.70;;;4.20;;
3523;SDS011;1776;53.330;11.498;2022-11-11T05:26:55;6.80;;;4.50;;
3523;SDS011;1776;53.330;11.498;2022-11-11T05:29:20;10.00;;;3.90;;
3523;SDS011;1776;53.330;11.498;2022-11-11T05:31:45;8.93;;;3.90;;
3523;SDS011;1776;53.330;11.498;2022-11-11T05:34:10;5.80;;;3.47;;
3523;SDS011;1776;53.330;11.498;2022-11-11T05:36:36;7.00;;;4.20;;
3523;SDS011;1776;53.330;11.498;2022-11-11T05:39:01;7.87;;;4.10;;
3523;SDS011;1776;53.330;11.498;2022-11-11T05:41:26;8.60;;;3.67;;
3523;SDS011;1776;53.330;11.498;2022-11-11T05:43:52;7.40;;;4.37;;
3523;SDS011;1776;53.330;11.498;2022-11-11T05:46:17;17.13;;;3.90;;
3523;SDS011;1776;53.330;11.498;2022-11-11T05:48:42;9.50;;;4.43;;
3523;SDS011;1776;53.330;11.498;2022-11-11T05:51:27;12.47;;;4.40;;
3523;SDS011;1776;53.330;11.498;2022-11-11T05:53:53;10.40;;;4.57;;
3523;SDS011;1776;53.330;11.498;2022-11-11T05:56:21;11.40;;;5.30;;
3523;SDS011;1776;53.330;11.498;2022-11-11T05:58:47;7.73;;;3.87;;
3523;SDS011;1776;53.330;11.498;2022-11-11T06:01:12;11.27;;;5.50;;
3523;SDS011;1776;53.330;11.498;2022-11-11T06:03:38;14.97;;;4.00;;
3523;SDS011;1776;53.330;11.498;2022-11-11T06:06:03;7.97;;;3.33;;
3523;SDS011;1776;53.330;11.498;2022-11-11T06:08:28;8.30;;;3.73;;
3523;SDS011;1776;53.330;11.498;2022-11-11T06:10:54;5.30;;;3.33;;
3523;SDS011;1776;53.330;11.498;2022-11-11T06:13:19;4.07;;;2.63;;
3523;SDS011;1776;53.330;11.498;2022-11-11T06:15:44;7.70;;;4.57;;
3523;SDS011;1776;53.330;11.498;2022-11-11T06:18:09;4.83;;;3.50;;
3523;SDS011;1776;53.330;11.498;2022-11-11T06:20:34;8.60;;;4.50;;
3523;SDS011;1776;53.330;11.498;2022-11-11T06:23:00;9.80;;;3.23;;
3523;SDS011;1776;53.330;11.498;2022-11-11T06:25:28;12.63;;;3.87;;
3523;SDS011;1776;53.330;11.498;2022-11-11T06:28:13;9.13;;;3.60;;
3523;SDS011;1776;53.330;11.498;2022-11-11T06:30:39;7.10;;;3.77;;
3523;SDS011;1776;53.330;11.498;2022-11-11T06:33:05;5.83;;;3.87;;
3523;SDS011;1776;53.330;11.498;2022-11-11T06:35:32;7.33;;;3.63;;
3523;SDS011;1776;53.330;11.498;2022-11-11T06:38:05;8.93;;;4.00;;
3523;SDS011;1776;53.330;11.498;2022-11-11T06:40:31;6.33;;;4.57;;
3523;SDS011;1776;53.330;11.498;2022-11-11T06:42:57;7.30;;;3.73;;
3523;SDS011;1776;53.330;11.498;2022-11-11T06:45:23;7.53;;;3.50;;
3523;SDS011;1776;53.330;11.498;2022-11-11T06:47:49;6.60;;;4.27;;
3523;SDS011;1776;53.330;11.498;2022-11-11T06:50:14;9.80;;;3.77;;
3523;SDS011;1776;53.330;11.498;2022-11-11T06:52:39;6.97;;;4.03;;
3523;SDS011;1776;53.330;11.498;2022-11-11T06:55:05;6.97;;;4.03;;
3523;SDS011;1776;53.330;11.498;2022-11-11T06:57:30;6.40;;;3.73;;
3523;SDS011;1776;53.330;11.498;2022-11-11T06:59:55;9.70;;;4.33;;
3523;SDS011;1776;53.330;11.498;2022-11-11T07:02:21;9.67;;;4.33;;
3523;SDS011;1776;53.330;11.498;2022-11-11T07:04:46;9.37;;;3.80;;
3523;SDS011;1776;53.330;11.498;2022-11-11T07:07:11;6.43;;;3.90;;
3523;SDS011;1776;53.330;11.498;2022-11-11T07:09:36;6.00;;;3.70;;
3523;SDS011;1776;53.330;11.498;2022-11-11T07:12:02;6.27;;;4.00;;
3523;SDS011;1776;53.330;11.498;2022-11-11T07:14:27;10.60;;;5.40;;
3523;SDS011;1776;53.330;11.498;2022-11-11T07:16:52;6.13;;;4.00;;
3523;SDS011;1776;53.330;11.498;2022-11-11T07:19:18;8.63;;;4.23;;
3523;SDS011;1776;53.330;11.498;2022-11-11T07:21:43;10.50;;;4.80;;
3523;SDS011;1776;53.330;11.498;2022-11-11T07:24:08;10.10;;;5.47;;
3523;SDS011;1776;53.330;11.498;2022-11-11T07:26:33;13.77;;;5.50;;
3523;SDS011;1776;53.330;11.498;2022-11-11T07:28:59;10.13;;;5.13;;
3523;SDS011;1776;53.330;11.498;2022-11-11T07:31:24;10.40;;;5.77;;
3523;SDS011;1776;53.330;11.498;2022-11-11T07:33:49;10.33;;;5.23;;
3523;SDS011;1776;53.330;11.498;2022-11-11T07:36:14;9.23;;;6.60;;
3523;SDS011;1776;53.330;11.498;2022-11-11T07:38:40;12.20;;;6.00;;
3523;SDS011;1776;53.330;11.498;2022-11-11T07:41:05;10.20;;;5.30;;
3523;SDS011;1776;53.330;11.498;2022-11-11T07:43:30;10.60;;;7.10;;
3523;SDS011;1776;53.330;11.498;2022-11-11T07:45:55;9.37;;;5.30;;
3523;SDS011;1776;53.330;11.498;2022-11-11T07:48:21;14.13;;;5.13;;
3523;SDS011;1776;53.330;11.498;2022-11-11T07:50:46;15.37;;;4.93;;
3523;SDS011;1776;53.330;11.498;2022-11-11T07:53:11;11.07;;;5.83;;
3523;SDS011;1776;53.330;11.498;2022-11-11T07:55:36;11.53;;;5.50;;
3523;SDS011;1776;53.330;11.498;2022-11-11T07:58:02;21.77;;;5.80;;
3523;SDS011;1776;53.330;11.498;2022-11-11T08:00:27;9.77;;;4.47;;
3523;SDS011;1776;53.330;11.498;2022-11-11T08:02:52;9.10;;;4.40;;
3523;SDS011;1776;53.330;11.498;2022-11-11T08:05:18;5.43;;;4.53;;
3523;SDS011;1776;53.330;11.498;2022-11-11T08:07:43;12.23;;;5.27;;
3523;SDS011;1776;53.330;11.498;2022-11-11T08:10:09;15.53;;;5.43;;
3523;SDS011;1776;53.330;11.498;2022-11-11T08:12:35;7.57;;;4.50;;
3523;SDS011;1776;53.330;11.498;2022-11-11T08:15:19;9.30;;;5.10;;
3523;SDS011;1776;53.330;11.498;2022-11-11T08:17:44;11.37;;;5.70;;
3523;SDS011;1776;53.330;11.498;2022-11-11T08:20:10;12.60;;;6.57;;
3523;SDS011;1776;53.330;11.498;2022-11-11T08:22:39;10.50;;;5.63;;
3523;SDS011;1776;53.330;11.498;2022-11-11T08:25:06;16.83;;;6.20;;
3523;SDS011;1776;53.330;11.498;2022-11-11T08:27:33;13.00;;;5.60;;
3523;SDS011;1776;53.330;11.498;2022-11-11T08:29:59;13.83;;;7.03;;
3523;SDS011;1776;53.330;11.498;2022-11-11T08:32:25;8.87;;;5.40;;
3523;SDS011;1776;53.330;11.498;2022-11-11T08:34:50;16.17;;;5.60;;
3523;SDS011;1776;53.330;11.498;2022-11-11T08:37:15;13.70;;;6.40;;
3523;SDS011;1776;53.330;11.498;2022-11-11T08:39:40;12.20;;;4.77;;
3523;SDS011;1776;53.330;11.498;2022-11-11T08:42:06;11.37;;;5.57;;
3523;SDS011;1776;53.330;11.498;2022-11-11T08:44:31;12.20;;;5.00;;
3523;SDS011;1776;53.330;11.498;2022-11-11T08:46:56;13.17;;;6.40;;
3523;SDS011;1776;53.330;11.498;2022-11-11T08:49:22;11.30;;;5.80;;
3523;SDS011;1776;53.330;11.498;2022-11-11T08:51:47;8.20;;;5.07;;
3523;SDS011;1776;53.330;11.498;2022-11-11T08:54:12;13.30;;;6.27;;
3523;SDS011;1776;53.330;11.498;2022-11-11T08:56:37;10.30;;;6.40;;
3523;SDS011;1776;53.330;11.498;2022-11-11T08:59:04;14.23;;;5.73;;
3523;SDS011;1776;53.330;11.498;2022-11-11T09:01:29;8.27;;;5.60;;
3523;SDS011;1776;53.330;11.498;2022-11-11T09:03:55;12.13;;;6.03;;
3523;SDS011;1776;53.330;11.498;2022-11-11T09:06:20;9.73;;;5.60;;
3523;SDS011;1776;53.330;11.498;2022-11-11T09:08:45;9.03;;;5.77;;
3523;SDS011;1776;53.330;11.498;2022-11-11T09:11:10;17.80;;;6.50;;
3523;SDS011;1776;53.330;11.498;2022-11-11T09:13:36;15.57;;;6.37;;
3523;SDS011;1776;53.330;11.498;2022-11-11T09:16:01;12.20;;;5.47;;
3523;SDS011;1776;53.330;11.498;2022-11-11T09:18:26;9.40;;;5.53;;
3523;SDS011;1776;53.330;11.498;2022-11-11T09:20:52;11.43;;;6.40;;
3523;SDS011;1776;53.330;11.498;2022-11-11T09:23:17;11.07;;;6.57;;
3523;SDS011;1776;53.330;11.498;2022-11-11T09:25:42;10.73;;;5.90;;
3523;SDS011;1776;53.330;11.498;2022-11-11T09:28:08;9.03;;;5.93;;
3523;SDS011;1776;53.330;11.498;2022-11-11T09:30:33;12.83;;;7.37;;
3523;SDS011;1776;53.330;11.498;2022-11-11T09:33:02;16.30;;;7.10;;
3523;SDS011;1776;53.330;11.498;2022-11-11T09:35:28;18.80;;;7.63;;
3523;SDS011;1776;53.330;11.498;2022-11-11T09:37:54;16.43;;;8.03;;
3523;SDS011;1776;53.330;11.498;2022-11-11T09:40:21;13.03;;;7.27;;
3523;SDS011;1776;53.330;11.498;2022-11-11T09:43:11;13.87;;;7.17;;
3523;SDS011;1776;53.330;11.498;2022-11-11T09:48:43;13.00;;;8.40;;
3523;SDS011;1776;53.330;11.498;2022-11-11T09:51:15;17.03;;;8.10;;
3523;SDS011;1776;53.330;11.498;2022-11-11T09:53:49;12.93;;;8.53;;
3523;SDS011;1776;53.330;11.498;2022-11-11T09:56:22;12.33;;;8.03;;
3523;SDS011;1776;53.330;11.498;2022-11-11T09:59:02;11.47;;;7.93;;
3523;SDS011;1776;53.330;11.498;2022-11-11T10:02:17;12.17;;;8.43;;
3523;SDS011;1776;53.330;11.498;2022-11-11T10:04:30;15.70;;;8.90;;
3523;SDS011;1776;53.330;11.498;2022-11-11T10:06:59;13.47;;;8.50;;
3523;SDS011;1776;53.330;11.498;2022-11-11T10:09:43;18.10;;;8.40;;
3523;SDS011;1776;53.330;11.498;2022-11-11T10:12:15;16.77;;;8.47;;
3523;SDS011;1776;53.330;11.498;2022-11-11T10:14:46;16.10;;;8.53;;
3523;SDS011;1776;53.330;11.498;2022-11-11T10:20:01;11.20;;;8.20;;
3523;SDS011;1776;53.330;11.498;2022-11-11T10:22:43;13.30;;;7.50;;
3523;SDS011;1776;53.330;11.498;2022-11-11T10:27:39;13.37;;;8.23;;
3523;SDS011;1776;53.330;11.498;2022-11-11T10:30:17;14.10;;;8.07;;
3523;SDS011;1776;53.330;11.498;2022-11-11T10:32:46;15.43;;;7.63;;
3523;SDS011;1776;53.330;11.498;2022-11-11T10:35:33;12.73;;;8.20;;
3523;SDS011;1776;53.330;11.498;2022-11-11T10:40:38;14.20;;;7.30;;
3523;SDS011;1776;53.330;11.498;2022-11-11T10:43:13;12.23;;;7.33;;
3523;SDS011;1776;53.330;11.498;2022-11-11T10:48:36;11.33;;;6.87;;
3523;SDS011;1776;53.330;11.498;2022-11-11T10:51:14;10.97;;;7.37;;
3523;SDS011;1776;53.330;11.498;2022-11-11T10:56:39;8.63;;;6.50;;
3523;SDS011;1776;53.330;11.498;2022-11-11T10:59:17;10.90;;;7.00;;
3523;SDS011;1776;53.330;11.498;2022-11-11T11:01:59;12.20;;;8.97;;
3523;SDS011;1776;53.330;11.498;2022-11-11T11:04:34;7.73;;;6.20;;
3523;SDS011;1776;53.330;11.498;2022-11-11T11:07:08;12.87;;;6.60;;
3523;SDS011;1776;53.330;11.498;2022-11-11T11:09:42;13.60;;;7.20;;
3523;SDS011;1776;53.330;11.498;2022-11-11T11:12:14;13.27;;;7.20;;
3523;SDS011;1776;53.330;11.498;2022-11-11T11:14:43;10.80;;;7.23;;
3523;SDS011;1776;53.330;11.498;2022-11-11T11:17:22;10.90;;;7.13;;
3523;SDS011;1776;53.330;11.498;2022-11-11T11:22:45;10.40;;;7.40;;
3523;SDS011;1776;53.330;11.498;2022-11-11T11:25:12;8.43;;;6.40;;
3523;SDS011;1776;53.330;11.498;2022-11-11T11:27:38;7.80;;;6.20;;
3523;SDS011;1776;53.330;11.498;2022-11-11T11:30:13;14.87;;;6.00;;
3523;SDS011;1776;53.330;11.498;2022-11-11T11:32:59;11.77;;;6.30;;
3523;SDS011;1776;53.330;11.498;2022-11-11T11:38:08;13.07;;;5.80;;
3523;SDS011;1776;53.330;11.498;2022-11-11T11:46:03;8.70;;;5.60;;
3523;SDS011;1776;53.330;11.498;2022-11-11T11:51:55;8.83;;;4.60;;
3523;SDS011;1776;53.330;11.498;2022-11-11T11:55:39;7.57;;;5.73;;
3523;SDS011;1776;53.330;11.498;2022-11-11T12:02:56;9.37;;;6.33;;
3523;SDS011;1776;53.330;11.498;2022-11-11T12:05:49;11.77;;;5.33;;
3523;SDS011;1776;53.330;11.498;2022-11-11T12:22:19;8.20;;;5.00;;
3523;SDS011;1776;53.330;11.498;2022-11-11T12:27:57;6.90;;;5.00;;
3523;SDS011;1776;53.330;11.498;2022-11-11T12:30:37;6.23;;;5.00;;
3523;SDS011;1776;53.330;11.498;2022-11-11T12:33:26;17.20;;;5.70;;
3523;SDS011;1776;53.330;11.498;2022-11-11T12:42:09;12.33;;;4.90;;
3523;SDS011;1776;53.330;11.498;2022-11-11T12:53:25;12.13;;;6.50;;
3523;SDS011;1776;53.330;11.498;2022-11-11T12:56:04;11.47;;;5.30;;
3523;SDS011;1776;53.330;11.498;2022-11-11T13:06:21;9.20;;;5.67;;
3523;SDS011;1776;53.330;11.498;2022-11-11T13:09:15;9.13;;;6.10;;
3523;SDS011;1776;53.330;11.498;2022-11-11T13:14:48;8.17;;;5.87;;
3523;SDS011;1776;53.330;11.498;2022-11-11T13:17:20;12.07;;;6.27;;
3523;SDS011;1776;53.330;11.498;2022-11-11T13:20:00;12.40;;;6.20;;
3523;SDS011;1776;53.330;11.498;2022-11-11T13:22:29;15.57;;;6.20;;
3523;SDS011;1776;53.330;11.498;2022-11-11T13:24:56;9.97;;;6.20;;
3523;SDS011;1776;53.330;11.498;2022-11-11T13:27:35;10.93;;;6.20;;
3523;SDS011;1776;53.330;11.498;2022-11-11T13:30:27;15.03;;;6.20;;
3523;SDS011;1776;53.330;11.498;2022-11-11T13:33:10;11.33;;;7.30;;
3523;SDS011;1776;53.330;11.498;2022-11-11T13:35:42;9.73;;;5.53;;
3523;SDS011;1776;53.330;11.498;2022-11-11T13:40:59;10.80;;;5.90;;
3523;SDS011;1776;53.330;11.498;2022-11-11T13:46:00;10.80;;;7.23;;
3523;SDS011;1776;53.330;11.498;2022-11-11T13:48:37;14.63;;;7.70;;
3523;SDS011;1776;53.330;11.498;2022-11-11T13:54:00;10.50;;;6.23;;
3523;SDS011;1776;53.330;11.498;2022-11-11T13:57:30;10.63;;;6.70;;
3523;SDS011;1776;53.330;11.498;2022-11-11T13:59:41;11.23;;;5.60;;
3523;SDS011;1776;53.330;11.498;2022-11-11T14:12:40;11.50;;;5.63;;
3523;SDS011;1776;53.330;11.498;2022-11-11T14:20:46;12.90;;;5.87;;
3523;SDS011;1776;53.330;11.498;2022-11-11T14:28:30;8.90;;;5.90;;
3523;SDS011;1776;53.330;11.498;2022-11-11T14:31:00;10.90;;;5.90;;
3523;SDS011;1776;53.330;11.498;2022-11-11T14:33:48;8.40;;;5.60;;
3523;SDS011;1776;53.330;11.498;2022-11-11T14:36:21;5.77;;;4.83;;
3523;SDS011;1776;53.330;11.498;2022-11-11T14:38:50;10.63;;;5.30;;
3523;SDS011;1776;53.330;11.498;2022-11-11T14:52:14;11.00;;;5.90;;
3523;SDS011;1776;53.330;11.498;2022-11-11T14:57:24;8.60;;;5.80;;
3523;SDS011;1776;53.330;11.498;2022-11-11T14:59:54;12.57;;;7.30;;
3523;SDS011;1776;53.330;11.498;2022-11-11T15:02:21;21.27;;;8.70;;
3523;SDS011;1776;53.330;11.498;2022-11-11T15:04:50;10.57;;;7.20;;
3523;SDS011;1776;53.330;11.498;2022-11-11T15:07:30;10.67;;;7.53;;
3523;SDS011;1776;53.330;11.498;2022-11-11T15:10:15;22.50;;;9.17;;
3523;SDS011;1776;53.330;11.498;2022-11-11T15:15:53;14.10;;;8.83;;
3523;SDS011;1776;53.330;11.498;2022-11-11T15:18:27;12.20;;;8.30;;
3523;SDS011;1776;53.330;11.498;2022-11-11T15:24:35;11.83;;;8.83;;
3523;SDS011;1776;53.330;11.498;2022-11-11T15:27:25;14.10;;;8.30;;
3523;SDS011;1776;53.330;11.498;2022-11-11T15:30:00;9.23;;;7.80;;
3523;SDS011;1776;53.330;11.498;2022-11-11T15:32:41;11.30;;;8.13;;
3523;SDS011;1776;53.330;11.498;2022-11-11T15:38:12;14.07;;;7.67;;
3523;SDS011;1776;53.330;11.498;2022-11-11T15:40:49;14.20;;;7.00;;
3523;SDS011;1776;53.330;11.498;2022-11-11T15:43:29;11.33;;;7.30;;
3523;SDS011;1776;53.330;11.498;2022-11-11T15:45:58;14.17;;;8.37;;
3523;SDS011;1776;53.330;11.498;2022-11-11T15:48:26;16.03;;;8.90;;
3523;SDS011;1776;53.330;11.498;2022-11-11T15:50:57;12.53;;;7.80;;
3523;SDS011;1776;53.330;11.498;2022-11-11T15:53:24;14.17;;;7.37;;
3523;SDS011;1776;53.330;11.498;2022-11-11T15:55:54;15.80;;;9.50;;
3523;SDS011;1776;53.330;11.498;2022-11-11T15:58:31;9.73;;;7.63;;
3523;SDS011;1776;53.330;11.498;2022-11-11T16:00:57;18.67;;;8.80;;
3523;SDS011;1776;53.330;11.498;2022-11-11T16:03:30;13.60;;;9.20;;
3523;SDS011;1776;53.330;11.498;2022-11-11T16:05:59;19.17;;;13.63;;
3523;SDS011;1776;53.330;11.498;2022-11-11T16:08:26;16.40;;;11.30;;
3523;SDS011;1776;53.330;11.498;2022-11-11T16:10:53;14.83;;;10.17;;
3523;SDS011;1776;53.330;11.498;2022-11-11T16:13:23;18.63;;;8.60;;
3523;SDS011;1776;53.330;11.498;2022-11-11T16:18:32;13.83;;;7.47;;
3523;SDS011;1776;53.330;11.498;2022-11-11T16:21:05;11.30;;;8.27;;
3523;SDS011;1776;53.330;11.498;2022-11-11T16:23:33;12.70;;;7.80;;
3523;SDS011;1776;53.330;11.498;2022-11-11T16:26:01;9.93;;;7.43;;
3523;SDS011;1776;53.330;11.498;2022-11-11T16:28:30;12.00;;;7.87;;
3523;SDS011;1776;53.330;11.498;2022-11-11T16:36:58;14.50;;;7.70;;
3523;SDS011;1776;53.330;11.498;2022-11-11T16:39:25;12.37;;;8.90;;
3523;SDS011;1776;53.330;11.498;2022-11-11T16:41:52;16.67;;;9.33;;
3523;SDS011;1776;53.330;11.498;2022-11-11T16:52:29;16.43;;;9.97;;
3523;SDS011;1776;53.330;11.498;2022-11-11T16:57:46;19.83;;;11.73;;
3523;SDS011;1776;53.330;11.498;2022-11-11T17:00:12;16.40;;;10.33;;
3523;SDS011;1776;53.330;11.498;2022-11-11T17:02:41;20.07;;;13.50;;
3523;SDS011;1776;53.330;11.498;2022-11-11T17:05:06;23.93;;;17.80;;
3523;SDS011;1776;53.330;11.498;2022-11-11T17:07:36;21.97;;;14.23;;
3523;SDS011;1776;53.330;11.498;2022-11-11T17:12:32;23.17;;;14.17;;
3523;SDS011;1776;53.330;11.498;2022-11-11T17:14:58;19.00;;;13.20;;
3523;SDS011;1776;53.330;11.498;2022-11-11T17:17:23;20.10;;;13.43;;
3523;SDS011;1776;53.330;11.498;2022-11-11T17:19:49;19.03;;;13.97;;
3523;SDS011;1776;53.330;11.498;2022-11-11T17:22:14;18.70;;;12.27;;
3523;SDS011;1776;53.330;11.498;2022-11-11T17:24:40;22.60;;;13.63;;
3523;SDS011;1776;53.330;11.498;2022-11-11T17:27:06;19.27;;;12.50;;
3523;SDS011;1776;53.330;11.498;2022-11-11T17:29:32;23.40;;;14.93;;
3523;SDS011;1776;53.330;11.498;2022-11-11T17:31:57;19.77;;;14.00;;
3523;SDS011;1776;53.330;11.498;2022-11-11T17:34:23;20.60;;;15.20;;
3523;SDS011;1776;53.330;11.498;2022-11-11T17:36:48;25.60;;;15.60;;
3523;SDS011;1776;53.330;11.498;2022-11-11T17:39:13;19.90;;;13.73;;
3523;SDS011;1776;53.330;11.498;2022-11-11T17:41:38;18.63;;;14.53;;
3523;SDS011;1776;53.330;11.498;2022-11-11T17:44:04;24.43;;;14.90;;
3523;SDS011;1776;53.330;11.498;2022-11-11T17:46:29;26.17;;;16.67;;
3523;SDS011;1776;53.330;11.498;2022-11-11T17:48:54;22.97;;;16.20;;